NOZ8NE ENGM-EGPH
Flight info
| Callsign | NOZ8NE |
|---|---|
| Flight time | N/A |
| Altitude | 38000 |
| Route | ATLAP DCT IPMOD DCT KLONN DCT ADN DCT NAXIL/N0369F240 P600 PTH |
| Aircraft | B738/M-SDE2E3FGHIRWXY/LB1 |
Departure
| Time | 2026-05-04 16:00 |
|---|---|
| Airport | Oslo-Gardermoen International Airport (ENGM) |
Arrival
| Time | N/A |
|---|---|
| Airport | Edinburgh Airport (EGPH) |
| Time | Latitude | Longitude | Altitude | Speed | Heading |
|---|---|---|---|---|---|
| 2026-05-04 15:41 | 60.19392 | 11.10650 | 681 ft | 0 kts | 196° |
| 2026-05-04 15:52 | 60.19393 | 11.10650 | 681 ft | 2 kts | 196° |
| 2026-05-04 15:52 | 60.19415 | 11.10662 | 681 ft | 3 kts | 196° |
| 2026-05-04 15:53 | 60.19438 | 11.10675 | 681 ft | 3 kts | 196° |
| 2026-05-04 15:53 | 60.19460 | 11.10687 | 678 ft | 2 kts | 197° |
| 2026-05-04 15:53 | 60.19479 | 11.10697 | 677 ft | 3 kts | 180° |
| 2026-05-04 15:53 | 60.19496 | 11.10687 | 679 ft | 3 kts | 122° |
| 2026-05-04 15:54 | 60.19498 | 11.10685 | 679 ft | 3 kts | 107° |
| 2026-05-04 15:54 | 60.19491 | 11.10730 | 679 ft | 3 kts | 107° |
| 2026-05-04 15:54 | 60.19487 | 11.10760 | 681 ft | 0 kts | 107° |
| 2026-05-04 15:56 | 60.19484 | 11.10778 | 681 ft | 5 kts | 105° |
| 2026-05-04 15:57 | 60.19467 | 11.10898 | 682 ft | 12 kts | 105° |
| 2026-05-04 15:57 | 60.19445 | 11.11057 | 681 ft | 12 kts | 105° |
| 2026-05-04 15:57 | 60.19420 | 11.11210 | 681 ft | 11 kts | 117° |
| 2026-05-04 15:57 | 60.19462 | 11.11308 | 682 ft | 11 kts | 16° |
| 2026-05-04 15:58 | 60.19548 | 11.11357 | 684 ft | 15 kts | 16° |
| 2026-05-04 15:58 | 60.19660 | 11.11422 | 682 ft | 18 kts | 16° |
| 2026-05-04 15:58 | 60.19733 | 11.11561 | 687 ft | 14 kts | 105° |
| 2026-05-04 15:58 | 60.19715 | 11.11669 | 686 ft | 8 kts | 107° |
| 2026-05-04 15:59 | 60.19684 | 11.11824 | 684 ft | 17 kts | 128° |
| 2026-05-04 15:59 | 60.19570 | 11.11919 | 685 ft | 19 kts | 191° |
| 2026-05-04 15:59 | 60.19292 | 11.11767 | 685 ft | 74 kts | 197° |
| 2026-05-04 15:59 | 60.18588 | 11.11360 | 681 ft | 134 kts | 197° |
| 2026-05-04 16:00 | 60.17620 | 11.10718 | 1129 ft | 149 kts | 203° |
| 2026-05-04 16:00 | 60.16605 | 11.10120 | 1879 ft | 158 kts | 203° |
| 2026-05-04 16:00 | 60.15528 | 11.09485 | 2565 ft | 165 kts | 203° |
| 2026-05-04 16:00 | 60.14336 | 11.08801 | 2848 ft | 190 kts | 201° |
| 2026-05-04 16:01 | 60.12970 | 11.08174 | 3055 ft | 213 kts | 194° |
| 2026-05-04 16:01 | 60.11430 | 11.07811 | 3228 ft | 232 kts | 191° |
| 2026-05-04 16:01 | 60.09753 | 11.07479 | 3455 ft | 251 kts | 191° |
| 2026-05-04 16:01 | 60.07991 | 11.07109 | 4108 ft | 254 kts | 192° |
| 2026-05-04 16:02 | 60.06396 | 11.05840 | 4802 ft | 246 kts | 225° |
| 2026-05-04 16:02 | 60.05480 | 11.03061 | 5546 ft | 240 kts | 251° |
| 2026-05-04 16:02 | 60.05309 | 10.96410 | 6979 ft | 245 kts | 276° |
| 2026-05-04 16:03 | 60.05590 | 10.93017 | 7728 ft | 248 kts | 277° |
| 2026-05-04 16:03 | 60.05895 | 10.89602 | 8499 ft | 251 kts | 278° |
| 2026-05-04 16:03 | 60.06202 | 10.86159 | 9298 ft | 251 kts | 278° |
| 2026-05-04 16:03 | 60.06502 | 10.82739 | 9989 ft | 256 kts | 278° |
| 2026-05-04 16:04 | 60.06817 | 10.79064 | 10187 ft | 279 kts | 278° |
| 2026-05-04 16:04 | 60.07505 | 10.70863 | 10797 ft | 312 kts | 278° |